createdAt,value
2022-08-02T00:00:47.482Z,0.30
2022-08-02T00:03:16.120Z,0.30
2022-08-02T00:05:53.233Z,0.30
2022-08-02T00:08:22.549Z,0.25
2022-08-02T00:10:51.222Z,0.40
2022-08-02T00:13:19.910Z,0.30
2022-08-02T00:15:48.512Z,0.35
2022-08-02T00:18:17.134Z,0.30
2022-08-02T00:20:47.121Z,0.30
2022-08-02T00:23:15.723Z,0.30
2022-08-02T00:25:55.131Z,0.40
2022-08-02T00:28:27.375Z,0.35
2022-08-02T00:30:57.331Z,0.30
2022-08-02T00:34:26.152Z,0.68
2022-08-02T00:36:16.169Z,0.40
2022-08-02T00:38:45.091Z,0.47
2022-08-02T00:41:16.777Z,0.52
2022-08-02T00:43:45.194Z,0.50
2022-08-02T00:46:15.264Z,0.40
2022-08-02T00:48:43.795Z,0.30
2022-08-02T00:51:12.494Z,0.40
2022-08-02T00:53:42.344Z,0.22
2022-08-02T00:56:10.741Z,0.40
2022-08-02T00:58:39.537Z,0.40
2022-08-02T01:01:07.847Z,0.50
2022-08-02T01:03:36.205Z,0.40
2022-08-02T01:06:12.045Z,0.40
2022-08-02T01:08:41.899Z,0.47
2022-08-02T01:11:12.188Z,0.40
2022-08-02T01:13:40.664Z,0.50
2022-08-02T01:16:17.390Z,0.40
2022-08-02T01:18:52.577Z,0.30
2022-08-02T01:21:50.985Z,0.40
2022-08-02T01:24:48.134Z,0.50
2022-08-02T01:27:34.727Z,0.40
2022-08-02T01:30:07.193Z,0.40
2022-08-02T01:32:42.959Z,0.32
2022-08-02T01:35:16.626Z,0.40
2022-08-02T01:37:50.905Z,0.30
2022-08-02T01:40:26.816Z,0.50
2022-08-02T01:42:57.878Z,0.30
2022-08-02T01:45:33.725Z,0.37
2022-08-02T01:48:02.851Z,0.40
2022-08-02T01:50:35.501Z,0.47
2022-08-02T01:53:10.301Z,0.30
2022-08-02T01:55:58.184Z,0.40
2022-08-02T01:58:32.003Z,0.30
2022-08-02T02:01:02.963Z,0.47
2022-08-02T02:03:33.741Z,0.40
2022-08-02T02:06:05.206Z,0.40
2022-08-02T02:08:39.162Z,0.32
2022-08-02T02:12:12.172Z,0.40
2022-08-02T02:13:59.200Z,0.40
2022-08-02T02:16:30.433Z,0.40
2022-08-02T02:19:01.200Z,0.43
2022-08-02T02:21:29.531Z,0.40
2022-08-02T02:24:00.715Z,0.40
2022-08-02T02:26:31.852Z,0.50
2022-08-02T02:29:03.037Z,0.40
2022-08-02T02:31:38.885Z,0.40
2022-08-02T02:34:11.931Z,0.32
2022-08-02T02:36:44.490Z,0.50
2022-08-02T02:39:15.617Z,0.40
2022-08-02T02:41:45.648Z,0.47
2022-08-02T02:44:20.595Z,0.50
2022-08-02T02:46:54.665Z,0.68
2022-08-02T02:49:24.464Z,0.43
2022-08-02T02:51:54.168Z,0.50
2022-08-02T02:54:33.296Z,0.40
2022-08-02T02:57:06.585Z,0.60
2022-08-02T02:59:42.468Z,0.40
2022-08-02T03:02:19.959Z,0.50
2022-08-02T03:04:57.357Z,0.50
2022-08-02T03:07:27.339Z,0.50
2022-08-02T03:09:55.846Z,0.43
2022-08-02T03:12:31.393Z,0.60
2022-08-02T03:15:01.412Z,0.40
2022-08-02T03:17:42.177Z,0.50
2022-08-02T03:20:13.545Z,0.50
2022-08-02T03:22:42.783Z,0.60
2022-08-02T03:25:13.403Z,0.50
2022-08-02T03:27:42.270Z,0.60
2022-08-02T03:30:14.425Z,0.50
2022-08-02T03:32:48.019Z,0.50
2022-08-02T03:35:23.796Z,0.50
2022-08-02T03:37:55.101Z,0.70
2022-08-02T03:40:24.500Z,0.80
2022-08-02T03:42:53.677Z,0.70
2022-08-02T03:45:22.567Z,0.70
2022-08-02T03:47:52.718Z,0.82
2022-08-02T03:50:22.964Z,0.70
2022-08-02T03:52:52.336Z,0.75
2022-08-02T03:55:20.732Z,0.80
2022-08-02T03:57:49.277Z,0.43
2022-08-02T04:00:21.512Z,0.60
2022-08-02T04:02:51.457Z,0.53
2022-08-02T04:05:20.300Z,0.60
2022-08-02T04:08:32.822Z,0.65
2022-08-02T04:10:51.850Z,0.60
2022-08-02T04:13:27.470Z,0.60
2022-08-02T04:16:04.933Z,0.70
2022-08-02T04:18:41.988Z,0.90
2022-08-02T04:21:13.489Z,0.50
2022-08-02T04:23:44.937Z,0.60
2022-08-02T04:26:14.054Z,0.60
2022-08-02T04:28:45.062Z,0.70
2022-08-02T04:31:13.785Z,0.70
2022-08-02T04:33:43.696Z,0.70
2022-08-02T04:36:14.236Z,0.60
2022-08-02T04:38:43.355Z,0.60
2022-08-02T04:41:11.753Z,0.80
2022-08-02T04:43:41.762Z,1.10
2022-08-02T04:46:10.076Z,1.10
2022-08-02T04:48:38.292Z,0.80
2022-08-02T04:51:08.058Z,0.80
2022-08-02T04:53:36.337Z,0.80
2022-08-02T04:56:04.830Z,0.95
2022-08-02T04:58:40.971Z,0.85
2022-08-02T05:01:09.446Z,0.90
2022-08-02T05:03:37.828Z,1.10
2022-08-02T05:06:18.834Z,0.77
2022-08-02T05:08:53.233Z,1.10
2022-08-02T05:11:23.124Z,1.13
2022-08-02T05:14:03.272Z,0.98
2022-08-02T05:16:32.269Z,1.10
2022-08-02T05:19:01.313Z,1.40
2022-08-02T05:21:32.636Z,0.80
2022-08-02T05:24:00.923Z,1.17
2022-08-02T05:26:29.176Z,1.63
2022-08-02T05:28:57.419Z,1.00
2022-08-02T05:31:25.708Z,1.50
2022-08-02T05:33:53.993Z,1.75
2022-08-02T05:36:22.268Z,1.60
2022-08-02T05:38:52.882Z,1.30
2022-08-02T05:41:28.058Z,1.60
2022-08-02T05:43:56.293Z,2.00
2022-08-02T05:46:24.570Z,1.50
2022-08-02T05:48:52.860Z,1.75
2022-08-02T05:51:27.804Z,1.80
2022-08-02T05:54:10.142Z,1.58
2022-08-02T05:56:46.765Z,1.90
2022-08-02T05:59:23.875Z,2.10
2022-08-02T06:01:58.542Z,1.65
2022-08-02T06:04:34.324Z,1.80
2022-08-02T06:07:06.252Z,1.50
2022-08-02T06:09:37.150Z,1.00
2022-08-02T06:12:09.750Z,1.60
2022-08-02T06:14:38.644Z,1.85
2022-08-02T06:17:07.080Z,1.88
2022-08-02T06:19:51.635Z,1.85
2022-08-02T06:22:35.545Z,1.73
2022-08-02T06:25:11.671Z,1.92
2022-08-02T06:27:56.891Z,1.58
2022-08-02T06:30:25.447Z,2.20
2022-08-02T06:32:54.125Z,2.00
2022-08-02T06:35:22.812Z,2.10
2022-08-02T06:37:58.773Z,2.30
2022-08-02T06:40:33.369Z,1.73
2022-08-02T06:43:13.678Z,1.80
2022-08-02T06:45:42.247Z,1.83
2022-08-02T06:48:11.731Z,2.08
2022-08-02T06:50:42.129Z,1.95
2022-08-02T06:53:11.810Z,2.35
2022-08-02T06:55:43.627Z,2.15
2022-08-02T06:58:13.350Z,2.00
2022-08-02T07:00:43.100Z,1.75
2022-08-02T07:03:11.539Z,2.05
2022-08-02T07:05:40.103Z,2.05
2022-08-02T07:08:08.770Z,1.80
2022-08-02T07:10:37.115Z,2.65
2022-08-02T07:13:06.961Z,1.90
2022-08-02T07:15:35.381Z,2.15
2022-08-02T07:18:03.754Z,2.40
2022-08-02T07:20:32.154Z,2.50
2022-08-02T07:23:00.404Z,2.22
2022-08-02T07:26:02.029Z,2.00
2022-08-02T07:28:22.266Z,1.55
2022-08-02T07:30:52.920Z,1.70
2022-08-02T07:33:37.527Z,2.10
2022-08-02T07:36:09.764Z,1.80
2022-08-02T07:38:45.533Z,1.50
2022-08-02T07:41:13.988Z,1.50
2022-08-02T07:43:43.617Z,1.50
2022-08-02T07:46:11.973Z,1.80
2022-08-02T07:48:40.213Z,1.90
2022-08-02T07:51:08.522Z,1.65
2022-08-02T07:53:51.451Z,1.40
2022-08-02T07:56:25.259Z,1.60
2022-08-02T07:58:55.192Z,1.50
2022-08-02T08:01:23.671Z,1.50
2022-08-02T08:03:52.009Z,1.70
2022-08-02T08:06:20.268Z,1.67
2022-08-02T08:08:57.369Z,1.80
2022-08-02T08:11:26.014Z,0.95
2022-08-02T08:13:55.711Z,1.50
2022-08-02T08:16:26.257Z,1.35
2022-08-02T08:18:54.549Z,1.52
2022-08-02T08:21:22.972Z,1.45
2022-08-02T08:23:51.283Z,1.42
2022-08-02T08:26:19.596Z,1.33
2022-08-02T08:28:47.873Z,1.27
2022-08-02T08:31:17.500Z,1.60
2022-08-02T08:33:45.780Z,1.10
2022-08-02T08:36:14.143Z,1.17
2022-08-02T08:38:42.392Z,1.40
2022-08-02T08:41:10.734Z,0.68
2022-08-02T08:43:39.071Z,0.98
2022-08-02T08:46:09.893Z,1.00
2022-08-02T08:48:45.097Z,1.40
2022-08-02T08:51:20.386Z,1.70
2022-08-02T08:53:50.605Z,1.35
2022-08-02T08:56:20.004Z,1.30
2022-08-02T08:58:48.645Z,1.70
2022-08-02T09:01:17.878Z,1.10
2022-08-02T09:03:47.756Z,1.20
2022-08-02T09:06:16.151Z,1.33
2022-08-02T09:08:44.642Z,0.70
2022-08-02T09:11:17.630Z,1.30
2022-08-02T09:13:55.347Z,1.25
2022-08-02T09:16:35.224Z,1.30
2022-08-02T09:19:20.186Z,1.10
2022-08-02T09:21:51.366Z,1.10
2022-08-02T09:24:21.824Z,0.83
2022-08-02T09:26:51.980Z,0.85
2022-08-02T09:29:25.359Z,0.90
2022-08-02T09:32:03.137Z,1.10
2022-08-02T09:34:49.315Z,0.85
2022-08-02T09:37:28.369Z,1.20
2022-08-02T09:40:00.608Z,0.77
2022-08-02T09:42:31.247Z,0.93
2022-08-02T09:45:02.033Z,1.08
2022-08-02T09:47:33.441Z,1.10
2022-08-02T09:50:12.201Z,0.90
2022-08-02T09:52:44.978Z,0.80
2022-08-02T09:55:14.427Z,1.10
2022-08-02T09:57:43.476Z,0.90
2022-08-02T10:00:31.608Z,1.00
2022-08-02T10:03:11.119Z,1.07
2022-08-02T10:05:56.119Z,0.90
2022-08-02T10:08:32.870Z,0.90
2022-08-02T10:11:03.586Z,0.70
2022-08-02T10:13:34.438Z,0.60
2022-08-02T10:16:04.196Z,0.60
2022-08-02T10:18:41.172Z,0.75
2022-08-02T10:21:16.531Z,0.52
2022-08-02T10:23:47.759Z,0.95
2022-08-02T10:26:19.442Z,0.70
2022-08-02T10:28:50.873Z,0.80
2022-08-02T10:31:25.159Z,0.60
2022-08-02T10:33:55.325Z,0.80
2022-08-02T10:36:27.330Z,0.80
2022-08-02T10:38:58.709Z,0.70
2022-08-02T10:41:48.346Z,0.40
2022-08-02T10:44:26.265Z,0.70
2022-08-02T10:47:15.451Z,0.53
2022-08-02T10:49:51.702Z,0.80
2022-08-02T10:52:22.442Z,0.50
2022-08-02T10:54:56.703Z,0.50
2022-08-02T10:57:27.372Z,0.50
2022-08-02T10:59:58.708Z,0.60
2022-08-02T11:02:46.765Z,0.50
2022-08-02T11:05:18.005Z,0.50
2022-08-02T11:07:51.271Z,0.57
2022-08-02T11:10:38.677Z,0.77
2022-08-02T11:13:11.899Z,0.73
2022-08-02T11:16:01.202Z,0.50
2022-08-02T11:19:06.694Z,0.70
2022-08-02T11:21:36.728Z,0.70
2022-08-02T11:24:30.029Z,0.60
2022-08-02T11:26:59.968Z,0.50
2022-08-02T11:29:38.114Z,0.50
2022-08-02T11:32:08.347Z,0.70
2022-08-02T11:34:38.301Z,0.63
2022-08-02T11:37:07.677Z,0.90
2022-08-02T11:39:37.385Z,0.77
2022-08-02T11:42:06.221Z,0.40
2022-08-02T11:44:42.705Z,0.50
2022-08-02T11:47:11.072Z,0.60
2022-08-02T11:49:39.631Z,0.60
2022-08-02T11:52:11.139Z,0.63
2022-08-02T11:54:43.627Z,0.53
2022-08-02T11:57:19.255Z,0.50
2022-08-02T11:59:51.850Z,0.50
2022-08-02T12:02:22.427Z,0.40
2022-08-02T12:04:58.503Z,0.50
2022-08-02T12:07:34.877Z,0.40
2022-08-02T12:10:09.146Z,0.60
2022-08-02T12:12:50.296Z,0.60
2022-08-02T12:15:34.920Z,0.40
2022-08-02T12:18:21.605Z,0.50
2022-08-02T12:20:49.941Z,0.50
2022-08-02T12:23:18.194Z,0.50
2022-08-02T12:25:47.895Z,0.60
2022-08-02T12:28:19.867Z,0.38
2022-08-02T12:30:54.479Z,0.57
2022-08-02T12:33:23.747Z,0.40
2022-08-02T12:35:52.685Z,0.70
2022-08-02T12:38:21.144Z,0.70
2022-08-02T12:40:51.130Z,0.77
2022-08-02T12:43:22.706Z,0.55
2022-08-02T12:45:54.394Z,0.73
2022-08-02T12:48:38.456Z,0.68
2022-08-02T12:51:23.432Z,0.40
2022-08-02T12:53:58.851Z,0.40
2022-08-02T12:56:31.614Z,0.60
2022-08-02T12:59:00.476Z,0.50
2022-08-02T13:01:30.417Z,0.40
2022-08-02T13:04:11.009Z,0.60
2022-08-02T13:06:44.605Z,0.57
2022-08-02T13:09:17.291Z,0.60
2022-08-02T13:11:47.561Z,0.60
2022-08-02T13:14:16.424Z,0.40
2022-08-02T13:16:47.723Z,0.30
2022-08-02T13:19:16.354Z,0.60
2022-08-02T13:22:01.200Z,0.50
2022-08-02T13:24:40.251Z,0.50
2022-08-02T13:27:22.241Z,0.50
2022-08-02T13:29:50.710Z,0.50
2022-08-02T13:32:19.015Z,0.70
2022-08-02T13:34:47.701Z,0.80
2022-08-02T13:37:16.566Z,0.73
2022-08-02T13:40:00.194Z,0.60
2022-08-02T13:42:34.443Z,0.43
2022-08-02T13:45:12.462Z,0.70
2022-08-02T13:48:04.527Z,0.60
2022-08-02T13:50:32.409Z,0.50
2022-08-02T13:53:00.665Z,0.80
2022-08-02T13:55:29.199Z,0.60
2022-08-02T13:58:00.233Z,0.70
2022-08-02T14:00:34.928Z,0.90
2022-08-02T14:03:06.912Z,0.63
2022-08-02T14:05:48.083Z,0.60
2022-08-02T14:08:18.911Z,0.57
2022-08-02T14:10:48.563Z,0.70
2022-08-02T14:13:19.037Z,0.80
2022-08-02T14:15:47.699Z,0.63
2022-08-02T14:18:15.921Z,0.60
2022-08-02T14:20:45.026Z,0.57
2022-08-02T14:23:13.522Z,0.60
2022-08-02T14:25:42.199Z,0.70
2022-08-02T14:28:10.526Z,0.73
2022-08-02T14:30:40.160Z,0.70
2022-08-02T14:33:08.909Z,0.50
2022-08-02T14:35:37.242Z,0.70
2022-08-02T14:38:05.727Z,0.60
2022-08-02T14:40:34.572Z,0.38
2022-08-02T14:43:03.015Z,0.50
2022-08-02T14:45:40.529Z,0.40
2022-08-02T14:48:12.957Z,0.70
2022-08-02T14:50:41.392Z,0.60
2022-08-02T14:53:12.557Z,0.65
2022-08-02T14:55:43.472Z,0.60
2022-08-02T14:58:12.130Z,0.52
2022-08-02T15:00:41.746Z,0.50
2022-08-02T15:03:14.347Z,0.43
2022-08-02T15:05:43.298Z,0.50
2022-08-02T15:08:11.698Z,0.60
2022-08-02T15:10:45.523Z,0.80
2022-08-02T15:13:13.805Z,0.40
2022-08-02T15:15:43.125Z,0.50
2022-08-02T15:18:14.737Z,0.60
2022-08-02T15:20:51.516Z,1.10
2022-08-02T15:23:37.366Z,0.90
2022-08-02T15:26:07.714Z,0.70
2022-08-02T15:28:37.099Z,0.40
2022-08-02T15:31:05.374Z,0.47
2022-08-02T15:33:34.943Z,0.50
2022-08-02T15:36:03.310Z,0.60
2022-08-02T15:38:31.562Z,1.08
2022-08-02T15:40:59.857Z,0.70
2022-08-02T15:43:28.080Z,0.70
2022-08-02T15:45:56.320Z,0.60
2022-08-02T15:48:24.828Z,0.50
2022-08-02T15:50:54.450Z,0.57
2022-08-02T15:53:22.688Z,0.40
2022-08-02T15:56:04.095Z,0.40
2022-08-02T15:58:34.909Z,0.30
2022-08-02T16:01:12.350Z,0.40
2022-08-02T16:03:40.644Z,0.30
2022-08-02T16:06:10.252Z,0.50
2022-08-02T16:08:38.509Z,0.50
2022-08-02T16:11:13.490Z,0.40
2022-08-02T16:13:53.831Z,0.40
2022-08-02T16:16:24.530Z,0.40
2022-08-02T16:18:53.271Z,0.32
2022-08-02T16:21:24.670Z,0.33
2022-08-02T16:24:01.950Z,0.33
2022-08-02T16:26:34.230Z,0.30
2022-08-02T16:29:05.037Z,0.40
2022-08-02T16:31:33.335Z,0.23
2022-08-02T16:34:01.574Z,0.30
2022-08-02T16:36:31.470Z,0.40
2022-08-02T16:38:59.785Z,0.30
2022-08-02T16:41:52.193Z,0.30
2022-08-02T16:44:29.814Z,0.30
2022-08-02T16:47:11.352Z,0.80
2022-08-02T16:50:05.021Z,0.60
2022-08-02T16:52:30.459Z,0.70
2022-08-02T16:54:58.669Z,0.43
2022-08-02T16:57:43.563Z,0.40
2022-08-02T17:00:16.213Z,0.40
2022-08-02T17:02:47.041Z,0.30
2022-08-02T17:05:16.086Z,0.35
2022-08-02T17:08:07.163Z,0.40
2022-08-02T17:10:36.092Z,0.33
2022-08-02T17:13:11.589Z,0.30
2022-08-02T17:16:08.035Z,0.20
2022-08-02T17:18:29.815Z,0.32
2022-08-02T17:20:58.153Z,0.50
2022-08-02T17:23:47.109Z,0.60
2022-08-02T17:26:16.090Z,0.25
2022-08-02T17:29:15.569Z,0.35
2022-08-02T17:31:37.213Z,0.65
2022-08-02T17:34:11.380Z,0.50
2022-08-02T17:36:39.618Z,0.40
2022-08-02T17:39:09.482Z,0.40
2022-08-02T17:41:48.790Z,0.32
2022-08-02T17:44:37.491Z,0.50
2022-08-02T17:47:08.799Z,0.30
2022-08-02T17:49:44.374Z,0.40
2022-08-02T17:52:50.521Z,0.50
2022-08-02T17:55:10.642Z,0.20
2022-08-02T17:57:56.002Z,0.20
2022-08-02T18:00:31.894Z,0.33
2022-08-02T18:03:05.970Z,0.35
2022-08-02T18:05:53.597Z,0.30
2022-08-02T18:08:24.253Z,0.28
2022-08-02T18:10:55.761Z,0.30
2022-08-02T18:13:24.653Z,0.63
2022-08-02T18:15:57.175Z,0.60
2022-08-02T18:18:29.256Z,0.32
2022-08-02T18:21:22.011Z,0.50
2022-08-02T18:23:49.719Z,0.50
2022-08-02T18:26:29.380Z,0.30
2022-08-02T18:29:00.512Z,0.50
2022-08-02T18:31:28.954Z,0.57
2022-08-02T18:34:08.670Z,0.60
2022-08-02T18:36:37.110Z,0.30
2022-08-02T18:39:16.070Z,0.40
2022-08-02T18:41:56.361Z,0.22
2022-08-02T18:44:26.448Z,0.33
2022-08-02T18:46:54.674Z,0.30
2022-08-02T18:49:24.038Z,0.30
2022-08-02T18:51:52.499Z,0.20
2022-08-02T18:54:26.575Z,0.20
2022-08-02T18:56:59.512Z,0.52
2022-08-02T18:59:29.120Z,0.30
2022-08-02T19:02:05.224Z,0.40
2022-08-02T19:04:33.445Z,0.20
2022-08-02T19:09:50.449Z,0.60
2022-08-02T19:12:28.322Z,0.20
2022-08-02T19:14:58.920Z,0.40
2022-08-02T19:17:55.025Z,0.40
2022-08-02T19:20:19.214Z,0.25
2022-08-02T19:22:50.088Z,0.50
2022-08-02T19:25:27.777Z,0.70
2022-08-02T19:27:56.742Z,0.60
2022-08-02T19:30:27.215Z,0.50
2022-08-02T19:32:59.341Z,0.20
2022-08-02T19:35:31.502Z,0.20
2022-08-02T19:38:17.787Z,0.20
2022-08-02T19:40:46.028Z,0.20
2022-08-02T19:44:25.530Z,0.10
2022-08-02T19:46:04.112Z,0.10
2022-08-02T19:48:32.319Z,0.20
2022-08-02T19:51:01.881Z,0.20
2022-08-02T19:53:47.406Z,0.20
2022-08-02T19:56:25.172Z,0.20
2022-08-02T19:58:55.738Z,0.20
2022-08-02T20:01:37.028Z,0.40
2022-08-02T20:04:13.752Z,0.10
2022-08-02T20:06:45.075Z,0.20
2022-08-02T20:09:16.707Z,0.20
2022-08-02T20:11:46.268Z,0.20
2022-08-02T20:14:27.545Z,0.20
2022-08-02T20:16:58.179Z,0.20
2022-08-02T20:19:28.969Z,0.13
2022-08-02T20:22:00.669Z,0.25
2022-08-02T20:24:29.694Z,0.30
2022-08-02T20:26:59.159Z,0.30
2022-08-02T20:29:43.458Z,0.20
2022-08-02T20:32:21.431Z,0.40
2022-08-02T20:34:51.266Z,0.70
2022-08-02T20:37:59.223Z,0.30
2022-08-02T20:40:16.424Z,0.20
2022-08-02T20:42:47.608Z,0.30
2022-08-02T20:45:16.561Z,0.50
2022-08-02T20:47:50.758Z,0.70
2022-08-02T20:50:37.980Z,0.40
2022-08-02T20:53:07.258Z,0.20
2022-08-02T20:55:41.142Z,0.50
2022-08-02T20:58:11.893Z,0.40
2022-08-02T21:00:41.064Z,0.30
2022-08-02T21:03:11.757Z,0.30
2022-08-02T21:05:55.945Z,0.30
2022-08-02T21:08:24.468Z,0.40
2022-08-02T21:10:53.412Z,0.30
2022-08-02T21:13:26.400Z,0.40
2022-08-02T21:15:59.845Z,0.20
2022-08-02T21:18:40.729Z,0.40
2022-08-02T21:21:10.914Z,0.30
2022-08-02T21:23:45.040Z,0.30
2022-08-02T21:26:27.851Z,0.30
2022-08-02T21:28:56.427Z,0.40
2022-08-02T21:31:29.740Z,0.30
2022-08-02T21:34:00.552Z,0.30
2022-08-02T21:36:30.627Z,0.32
2022-08-02T21:38:59.998Z,0.40
2022-08-02T21:41:39.550Z,0.40
2022-08-02T21:44:16.498Z,0.30
2022-08-02T21:46:46.675Z,0.40
2022-08-02T21:49:20.127Z,0.47
2022-08-02T21:51:49.406Z,0.40
2022-08-02T21:54:20.308Z,0.60
2022-08-02T21:56:52.197Z,0.70
2022-08-02T21:59:25.823Z,0.40
2022-08-02T22:01:56.681Z,0.40
2022-08-02T22:04:27.693Z,0.50
2022-08-02T22:06:56.594Z,0.40
2022-08-02T22:09:43.122Z,0.32
2022-08-02T22:12:18.010Z,0.40
2022-08-02T22:14:55.009Z,0.30
2022-08-02T22:17:50.534Z,0.35
2022-08-02T22:20:19.709Z,0.27
2022-08-02T22:22:50.712Z,0.35
2022-08-02T22:25:27.049Z,0.25
2022-08-02T22:28:38.461Z,0.40
2022-08-02T22:30:56.888Z,0.30
2022-08-02T22:33:47.081Z,0.30
2022-08-02T22:36:31.318Z,0.30
2022-08-02T22:39:00.372Z,0.40
2022-08-02T22:42:00.187Z,0.30
2022-08-02T22:44:18.730Z,0.30
2022-08-02T22:46:49.973Z,0.30
2022-08-02T22:49:38.763Z,0.20
2022-08-02T22:52:10.671Z,0.20
2022-08-02T22:54:39.183Z,0.30
2022-08-02T22:57:11.410Z,0.20
2022-08-02T22:58:57.183Z,0.20
2022-08-02T22:59:55.751Z,0.20
2022-08-02T23:02:24.971Z,0.25
2022-08-02T23:04:53.502Z,0.30
2022-08-02T23:07:23.140Z,0.30
2022-08-02T23:09:51.364Z,0.25
2022-08-02T23:12:20.288Z,0.40
2022-08-02T23:14:50.318Z,0.20
2022-08-02T23:17:36.305Z,0.30
2022-08-02T23:20:06.126Z,0.25
2022-08-02T23:22:36.652Z,0.30
2022-08-02T23:25:07.862Z,0.22
2022-08-02T23:27:36.582Z,0.30
2022-08-02T23:30:08.184Z,0.30
2022-08-02T23:32:36.370Z,0.22
2022-08-02T23:35:06.342Z,0.30
2022-08-02T23:37:59.889Z,0.20
2022-08-02T23:40:38.980Z,0.30
2022-08-02T23:43:14.230Z,0.30
2022-08-02T23:45:45.612Z,0.32
2022-08-02T23:48:13.896Z,0.30
2022-08-02T23:50:42.153Z,0.20
2022-08-02T23:53:11.740Z,0.30
2022-08-02T23:55:39.977Z,0.20
2022-08-02T23:58:08.174Z,0.20
